sensor_id;sensor_type;location;lat;lon;timestamp;temperature;humidity
40291;DHT22;26000;48.304;13.626;2023-05-10T00:01:56;13.90;99.90
40291;DHT22;26000;48.304;13.626;2023-05-10T00:04:22;13.70;99.90
40291;DHT22;26000;48.304;13.626;2023-05-10T00:06:47;13.60;99.90
40291;DHT22;26000;48.304;13.626;2023-05-10T00:09:13;13.60;99.90
40291;DHT22;26000;48.304;13.626;2023-05-10T00:11:39;13.50;99.90
40291;DHT22;26000;48.304;13.626;2023-05-10T00:14:05;13.40;99.90
40291;DHT22;26000;48.304;13.626;2023-05-10T00:16:30;13.50;99.90
40291;DHT22;26000;48.304;13.626;2023-05-10T00:18:56;13.40;99.90
40291;DHT22;26000;48.304;13.626;2023-05-10T00:21:21;13.40;99.90
40291;DHT22;26000;48.304;13.626;2023-05-10T00:23:47;13.40;99.90
40291;DHT22;26000;48.304;13.626;2023-05-10T00:26:13;13.40;99.90
40291;DHT22;26000;48.304;13.626;2023-05-10T00:28:38;13.30;99.90
40291;DHT22;26000;48.304;13.626;2023-05-10T00:31:04;13.30;99.90
40291;DHT22;26000;48.304;13.626;2023-05-10T00:33:29;13.20;99.90
40291;DHT22;26000;48.304;13.626;2023-05-10T00:35:55;13.10;99.90
40291;DHT22;26000;48.304;13.626;2023-05-10T00:38:21;13.10;99.90
40291;DHT22;26000;48.304;13.626;2023-05-10T00:40:47;13.00;99.90
40291;DHT22;26000;48.304;13.626;2023-05-10T00:43:12;13.10;99.90
40291;DHT22;26000;48.304;13.626;2023-05-10T00:45:40;13.00;99.90
40291;DHT22;26000;48.304;13.626;2023-05-10T00:48:05;13.00;99.90
40291;DHT22;26000;48.304;13.626;2023-05-10T00:50:32;13.00;99.90
40291;DHT22;26000;48.304;13.626;2023-05-10T00:53:02;13.00;99.90
40291;DHT22;26000;48.304;13.626;2023-05-10T00:55:28;13.00;99.90
40291;DHT22;26000;48.304;13.626;2023-05-10T00:57:54;13.00;99.90
40291;DHT22;26000;48.304;13.626;2023-05-10T01:00:20;12.90;99.90
40291;DHT22;26000;48.304;13.626;2023-05-10T01:02:46;13.00;99.90
40291;DHT22;26000;48.304;13.626;2023-05-10T01:05:12;12.90;99.90
40291;DHT22;26000;48.304;13.626;2023-05-10T01:07:38;13.00;99.90
40291;DHT22;26000;48.304;13.626;2023-05-10T01:10:05;12.90;99.90
40291;DHT22;26000;48.304;13.626;2023-05-10T01:12:31;12.90;99.90
40291;DHT22;26000;48.304;13.626;2023-05-10T01:14:57;12.80;99.90
40291;DHT22;26000;48.304;13.626;2023-05-10T01:17:23;12.80;99.90
40291;DHT22;26000;48.304;13.626;2023-05-10T01:19:49;12.80;99.90
40291;DHT22;26000;48.304;13.626;2023-05-10T01:33:14;12.70;99.90
40291;DHT22;26000;48.304;13.626;2023-05-10T01:38:22;12.70;99.90
40291;DHT22;26000;48.304;13.626;2023-05-10T01:41:12;12.80;99.90
40291;DHT22;26000;48.304;13.626;2023-05-10T01:46:32;12.80;99.90
40291;DHT22;26000;48.304;13.626;2023-05-10T01:49:01;12.80;99.90
40291;DHT22;26000;48.304;13.626;2023-05-10T01:51:38;12.70;99.90
40291;DHT22;26000;48.304;13.626;2023-05-10T01:54:05;12.70;99.90
40291;DHT22;26000;48.304;13.626;2023-05-10T01:56:33;12.70;99.90
40291;DHT22;26000;48.304;13.626;2023-05-10T01:59:00;12.80;99.90
40291;DHT22;26000;48.304;13.626;2023-05-10T02:01:31;12.80;99.90
40291;DHT22;26000;48.304;13.626;2023-05-10T02:03:58;12.80;99.90
40291;DHT22;26000;48.304;13.626;2023-05-10T02:06:25;12.80;99.90
40291;DHT22;26000;48.304;13.626;2023-05-10T02:08:52;12.80;99.90
40291;DHT22;26000;48.304;13.626;2023-05-10T02:11:20;12.80;99.90
40291;DHT22;26000;48.304;13.626;2023-05-10T02:13:49;12.90;99.90
40291;DHT22;26000;48.304;13.626;2023-05-10T02:16:16;12.90;99.90
40291;DHT22;26000;48.304;13.626;2023-05-10T02:18:42;13.00;99.90
40291;DHT22;26000;48.304;13.626;2023-05-10T02:21:10;12.90;99.90
40291;DHT22;26000;48.304;13.626;2023-05-10T02:23:36;12.90;99.90
40291;DHT22;26000;48.304;13.626;2023-05-10T02:26:02;12.90;99.90
40291;DHT22;26000;48.304;13.626;2023-05-10T02:28:30;12.80;99.90
40291;DHT22;26000;48.304;13.626;2023-05-10T02:30:56;12.80;99.90
40291;DHT22;26000;48.304;13.626;2023-05-10T02:33:22;12.80;99.90
40291;DHT22;26000;48.304;13.626;2023-05-10T02:35:50;12.80;99.90
40291;DHT22;26000;48.304;13.626;2023-05-10T02:38:18;12.80;99.90
40291;DHT22;26000;48.304;13.626;2023-05-10T02:40:46;12.80;99.90
40291;DHT22;26000;48.304;13.626;2023-05-10T02:43:14;12.80;99.90
40291;DHT22;26000;48.304;13.626;2023-05-10T02:45:42;12.80;99.90
40291;DHT22;26000;48.304;13.626;2023-05-10T02:48:08;12.80;99.90
40291;DHT22;26000;48.304;13.626;2023-05-10T02:50:34;12.80;99.90
40291;DHT22;26000;48.304;13.626;2023-05-10T02:53:06;12.90;99.90
40291;DHT22;26000;48.304;13.626;2023-05-10T02:55:37;12.80;99.90
40291;DHT22;26000;48.304;13.626;2023-05-10T02:58:03;12.80;99.90
40291;DHT22;26000;48.304;13.626;2023-05-10T03:00:29;12.90;99.90
40291;DHT22;26000;48.304;13.626;2023-05-10T03:02:54;13.00;99.90
40291;DHT22;26000;48.304;13.626;2023-05-10T03:05:20;13.00;99.90
40291;DHT22;26000;48.304;13.626;2023-05-10T03:07:46;13.00;99.90
40291;DHT22;26000;48.304;13.626;2023-05-10T03:10:12;13.10;99.90
40291;DHT22;26000;48.304;13.626;2023-05-10T03:18:01;13.10;99.90
40291;DHT22;26000;48.304;13.626;2023-05-10T03:20:38;13.20;99.90
40291;DHT22;26000;48.304;13.626;2023-05-10T03:23:26;13.10;99.90
40291;DHT22;26000;48.304;13.626;2023-05-10T03:25:52;13.20;99.90
40291;DHT22;26000;48.304;13.626;2023-05-10T03:28:20;13.10;99.90
40291;DHT22;26000;48.304;13.626;2023-05-10T03:30:47;13.20;99.90
40291;DHT22;26000;48.304;13.626;2023-05-10T03:33:13;13.30;99.90
40291;DHT22;26000;48.304;13.626;2023-05-10T03:35:39;13.20;99.90
40291;DHT22;26000;48.304;13.626;2023-05-10T03:38:05;13.20;99.90
40291;DHT22;26000;48.304;13.626;2023-05-10T03:40:30;13.30;99.90
40291;DHT22;26000;48.304;13.626;2023-05-10T03:43:00;13.30;99.90
40291;DHT22;26000;48.304;13.626;2023-05-10T03:45:26;13.30;99.90
40291;DHT22;26000;48.304;13.626;2023-05-10T03:47:52;13.30;99.90
40291;DHT22;26000;48.304;13.626;2023-05-10T03:50:18;13.30;99.90
40291;DHT22;26000;48.304;13.626;2023-05-10T03:52:44;13.30;99.90
40291;DHT22;26000;48.304;13.626;2023-05-10T03:55:10;13.30;99.90
40291;DHT22;26000;48.304;13.626;2023-05-10T03:57:35;13.30;99.90
40291;DHT22;26000;48.304;13.626;2023-05-10T04:00:02;13.30;99.90
40291;DHT22;26000;48.304;13.626;2023-05-10T04:02:28;13.30;99.90
40291;DHT22;26000;48.304;13.626;2023-05-10T04:04:55;13.30;99.90
40291;DHT22;26000;48.304;13.626;2023-05-10T04:07:21;13.40;99.90
40291;DHT22;26000;48.304;13.626;2023-05-10T04:09:47;13.30;99.90
40291;DHT22;26000;48.304;13.626;2023-05-10T04:12:12;13.30;99.90
40291;DHT22;26000;48.304;13.626;2023-05-10T04:14:38;13.40;99.90
40291;DHT22;26000;48.304;13.626;2023-05-10T04:17:03;13.40;99.90
40291;DHT22;26000;48.304;13.626;2023-05-10T04:19:32;13.40;99.90
40291;DHT22;26000;48.304;13.626;2023-05-10T04:21:58;13.30;99.90
40291;DHT22;26000;48.304;13.626;2023-05-10T04:24:24;13.40;99.90
40291;DHT22;26000;48.304;13.626;2023-05-10T04:26:50;13.50;99.90
40291;DHT22;26000;48.304;13.626;2023-05-10T04:29:16;13.50;99.90
40291;DHT22;26000;48.304;13.626;2023-05-10T04:31:42;13.50;99.90
40291;DHT22;26000;48.304;13.626;2023-05-10T04:34:07;13.50;99.90
40291;DHT22;26000;48.304;13.626;2023-05-10T04:36:33;13.50;99.90
40291;DHT22;26000;48.304;13.626;2023-05-10T04:39:01;13.50;99.90
40291;DHT22;26000;48.304;13.626;2023-05-10T04:41:28;13.50;99.90
40291;DHT22;26000;48.304;13.626;2023-05-10T04:43:54;13.50;99.90
40291;DHT22;26000;48.304;13.626;2023-05-10T04:46:20;13.50;99.90
40291;DHT22;26000;48.304;13.626;2023-05-10T04:48:45;13.50;99.90
40291;DHT22;26000;48.304;13.626;2023-05-10T04:51:11;13.50;99.90
40291;DHT22;26000;48.304;13.626;2023-05-10T04:53:37;13.50;99.90
40291;DHT22;26000;48.304;13.626;2023-05-10T04:56:03;13.50;99.90
40291;DHT22;26000;48.304;13.626;2023-05-10T04:58:29;13.50;99.90
40291;DHT22;26000;48.304;13.626;2023-05-10T05:00:54;13.50;99.90
40291;DHT22;26000;48.304;13.626;2023-05-10T05:03:20;13.50;99.90
40291;DHT22;26000;48.304;13.626;2023-05-10T05:05:47;13.50;99.90
40291;DHT22;26000;48.304;13.626;2023-05-10T05:08:12;13.50;99.90
40291;DHT22;26000;48.304;13.626;2023-05-10T05:10:38;13.50;99.90
40291;DHT22;26000;48.304;13.626;2023-05-10T05:13:04;13.50;99.90
40291;DHT22;26000;48.304;13.626;2023-05-10T05:15:29;13.50;99.90
40291;DHT22;26000;48.304;13.626;2023-05-10T05:17:56;13.40;99.90
40291;DHT22;26000;48.304;13.626;2023-05-10T05:20:21;13.40;99.90
40291;DHT22;26000;48.304;13.626;2023-05-10T05:22:47;13.50;99.90
40291;DHT22;26000;48.304;13.626;2023-05-10T05:25:13;13.40;99.90
40291;DHT22;26000;48.304;13.626;2023-05-10T05:27:38;13.40;99.90
40291;DHT22;26000;48.304;13.626;2023-05-10T05:30:04;13.30;99.90
40291;DHT22;26000;48.304;13.626;2023-05-10T05:32:30;13.20;99.90
40291;DHT22;26000;48.304;13.626;2023-05-10T05:34:56;13.30;99.90
40291;DHT22;26000;48.304;13.626;2023-05-10T05:37:22;13.30;99.90
40291;DHT22;26000;48.304;13.626;2023-05-10T05:39:48;13.30;99.90
40291;DHT22;26000;48.304;13.626;2023-05-10T05:42:14;13.30;99.90
40291;DHT22;26000;48.304;13.626;2023-05-10T05:44:41;13.40;99.90
40291;DHT22;26000;48.304;13.626;2023-05-10T05:47:07;13.40;99.90
40291;DHT22;26000;48.304;13.626;2023-05-10T05:49:33;13.40;99.90
40291;DHT22;26000;48.304;13.626;2023-05-10T05:52:03;13.50;99.90
40291;DHT22;26000;48.304;13.626;2023-05-10T05:54:30;13.60;99.90
40291;DHT22;26000;48.304;13.626;2023-05-10T05:57:00;13.60;99.90
40291;DHT22;26000;48.304;13.626;2023-05-10T05:59:26;13.60;99.90
40291;DHT22;26000;48.304;13.626;2023-05-10T06:01:52;13.70;99.90
40291;DHT22;26000;48.304;13.626;2023-05-10T06:04:18;13.70;99.90
40291;DHT22;26000;48.304;13.626;2023-05-10T06:06:44;13.70;99.90
40291;DHT22;26000;48.304;13.626;2023-05-10T06:09:10;13.80;99.90
40291;DHT22;26000;48.304;13.626;2023-05-10T06:11:36;13.80;99.90
40291;DHT22;26000;48.304;13.626;2023-05-10T06:14:03;13.80;99.90
40291;DHT22;26000;48.304;13.626;2023-05-10T06:16:33;13.90;99.90
40291;DHT22;26000;48.304;13.626;2023-05-10T06:18:59;13.90;99.90
40291;DHT22;26000;48.304;13.626;2023-05-10T06:21:25;14.00;99.90
40291;DHT22;26000;48.304;13.626;2023-05-10T06:23:50;14.00;99.90
40291;DHT22;26000;48.304;13.626;2023-05-10T06:26:16;14.00;99.90
40291;DHT22;26000;48.304;13.626;2023-05-10T06:28:42;14.00;99.90
40291;DHT22;26000;48.304;13.626;2023-05-10T06:31:07;14.10;99.90
40291;DHT22;26000;48.304;13.626;2023-05-10T06:33:34;14.00;99.90
40291;DHT22;26000;48.304;13.626;2023-05-10T06:35:59;14.00;99.90
40291;DHT22;26000;48.304;13.626;2023-05-10T06:38:25;14.00;99.90
40291;DHT22;26000;48.304;13.626;2023-05-10T06:40:51;14.00;99.90
40291;DHT22;26000;48.304;13.626;2023-05-10T06:43:17;14.00;99.90
40291;DHT22;26000;48.304;13.626;2023-05-10T06:45:42;14.00;99.90
40291;DHT22;26000;48.304;13.626;2023-05-10T06:48:08;14.00;99.90
40291;DHT22;26000;48.304;13.626;2023-05-10T06:50:34;14.10;99.90
40291;DHT22;26000;48.304;13.626;2023-05-10T06:53:00;14.00;99.90
40291;DHT22;26000;48.304;13.626;2023-05-10T06:55:27;14.00;99.90
40291;DHT22;26000;48.304;13.626;2023-05-10T06:57:53;13.90;99.90
40291;DHT22;26000;48.304;13.626;2023-05-10T07:00:19;13.90;99.90
40291;DHT22;26000;48.304;13.626;2023-05-10T07:02:46;14.00;99.90
40291;DHT22;26000;48.304;13.626;2023-05-10T07:05:12;14.00;99.90
40291;DHT22;26000;48.304;13.626;2023-05-10T07:07:38;14.00;99.90
40291;DHT22;26000;48.304;13.626;2023-05-10T07:10:04;14.10;99.90
40291;DHT22;26000;48.304;13.626;2023-05-10T07:12:29;14.10;99.90
40291;DHT22;26000;48.304;13.626;2023-05-10T07:14:55;14.20;99.90
40291;DHT22;26000;48.304;13.626;2023-05-10T07:17:21;14.30;99.90
40291;DHT22;26000;48.304;13.626;2023-05-10T07:19:46;14.30;99.90
40291;DHT22;26000;48.304;13.626;2023-05-10T07:22:12;14.30;99.90
40291;DHT22;26000;48.304;13.626;2023-05-10T07:24:38;14.30;99.90
40291;DHT22;26000;48.304;13.626;2023-05-10T07:27:03;14.30;99.90
40291;DHT22;26000;48.304;13.626;2023-05-10T07:29:29;14.30;99.90
40291;DHT22;26000;48.304;13.626;2023-05-10T07:31:55;14.30;99.90
40291;DHT22;26000;48.304;13.626;2023-05-10T07:34:21;14.30;99.90
40291;DHT22;26000;48.304;13.626;2023-05-10T07:36:46;14.20;99.90
40291;DHT22;26000;48.304;13.626;2023-05-10T07:39:12;14.20;99.90
40291;DHT22;26000;48.304;13.626;2023-05-10T07:41:38;14.20;99.90
40291;DHT22;26000;48.304;13.626;2023-05-10T07:44:04;14.30;99.90
40291;DHT22;26000;48.304;13.626;2023-05-10T07:46:30;14.30;99.90
40291;DHT22;26000;48.304;13.626;2023-05-10T07:48:55;14.30;99.90
40291;DHT22;26000;48.304;13.626;2023-05-10T07:51:21;14.30;99.90
40291;DHT22;26000;48.304;13.626;2023-05-10T07:53:47;14.40;99.90
40291;DHT22;26000;48.304;13.626;2023-05-10T07:56:24;14.40;99.90
40291;DHT22;26000;48.304;13.626;2023-05-10T07:58:51;14.50;99.90
40291;DHT22;26000;48.304;13.626;2023-05-10T08:01:17;14.50;99.90
40291;DHT22;26000;48.304;13.626;2023-05-10T08:03:43;14.50;99.90
40291;DHT22;26000;48.304;13.626;2023-05-10T08:06:08;14.60;99.90
40291;DHT22;26000;48.304;13.626;2023-05-10T08:08:34;14.50;99.90
40291;DHT22;26000;48.304;13.626;2023-05-10T08:11:00;14.50;99.90
40291;DHT22;26000;48.304;13.626;2023-05-10T08:13:25;14.50;99.90
40291;DHT22;26000;48.304;13.626;2023-05-10T08:15:51;14.40;99.90
40291;DHT22;26000;48.304;13.626;2023-05-10T08:18:18;14.40;99.90
40291;DHT22;26000;48.304;13.626;2023-05-10T08:20:44;14.50;99.90
40291;DHT22;26000;48.304;13.626;2023-05-10T08:23:11;14.50;99.90
40291;DHT22;26000;48.304;13.626;2023-05-10T08:25:37;14.50;99.90
40291;DHT22;26000;48.304;13.626;2023-05-10T08:28:03;14.60;99.90
40291;DHT22;26000;48.304;13.626;2023-05-10T08:30:28;14.70;99.90
40291;DHT22;26000;48.304;13.626;2023-05-10T08:32:54;14.70;99.90
40291;DHT22;26000;48.304;13.626;2023-05-10T08:35:19;14.70;99.90
40291;DHT22;26000;48.304;13.626;2023-05-10T08:37:45;14.70;99.90
40291;DHT22;26000;48.304;13.626;2023-05-10T08:40:11;14.70;99.90
40291;DHT22;26000;48.304;13.626;2023-05-10T08:42:40;14.70;99.90
40291;DHT22;26000;48.304;13.626;2023-05-10T08:45:07;14.80;99.90
40291;DHT22;26000;48.304;13.626;2023-05-10T08:47:35;14.80;99.90
40291;DHT22;26000;48.304;13.626;2023-05-10T08:50:03;14.90;99.90
40291;DHT22;26000;48.304;13.626;2023-05-10T08:52:30;14.90;99.90
40291;DHT22;26000;48.304;13.626;2023-05-10T08:54:58;15.00;99.90
40291;DHT22;26000;48.304;13.626;2023-05-10T08:57:23;15.00;99.90
40291;DHT22;26000;48.304;13.626;2023-05-10T08:59:49;15.10;99.90
40291;DHT22;26000;48.304;13.626;2023-05-10T09:02:16;15.00;99.90
40291;DHT22;26000;48.304;13.626;2023-05-10T09:04:42;15.00;99.90
40291;DHT22;26000;48.304;13.626;2023-05-10T09:07:07;15.00;99.90
40291;DHT22;26000;48.304;13.626;2023-05-10T09:09:33;15.00;99.90
40291;DHT22;26000;48.304;13.626;2023-05-10T09:12:00;15.00;99.90
40291;DHT22;26000;48.304;13.626;2023-05-10T09:14:26;15.00;99.90
40291;DHT22;26000;48.304;13.626;2023-05-10T09:16:52;14.90;99.90
40291;DHT22;26000;48.304;13.626;2023-05-10T09:19:19;14.80;99.90
40291;DHT22;26000;48.304;13.626;2023-05-10T09:21:45;14.80;99.90
40291;DHT22;26000;48.304;13.626;2023-05-10T09:24:12;14.80;99.90
40291;DHT22;26000;48.304;13.626;2023-05-10T09:26:46;14.90;99.90
40291;DHT22;26000;48.304;13.626;2023-05-10T09:29:13;15.00;99.90
40291;DHT22;26000;48.304;13.626;2023-05-10T09:31:49;15.00;99.90
40291;DHT22;26000;48.304;13.626;2023-05-10T09:34:31;15.00;99.90
40291;DHT22;26000;48.304;13.626;2023-05-10T09:36:59;15.20;99.90
40291;DHT22;26000;48.304;13.626;2023-05-10T09:39:37;15.30;99.90
40291;DHT22;26000;48.304;13.626;2023-05-10T09:42:05;15.40;99.90
40291;DHT22;26000;48.304;13.626;2023-05-10T09:44:32;15.40;99.90
40291;DHT22;26000;48.304;13.626;2023-05-10T09:46:58;15.50;99.90
40291;DHT22;26000;48.304;13.626;2023-05-10T09:49:23;15.50;99.90
40291;DHT22;26000;48.304;13.626;2023-05-10T09:52:05;15.60;99.90
40291;DHT22;26000;48.304;13.626;2023-05-10T09:54:31;15.50;99.90
40291;DHT22;26000;48.304;13.626;2023-05-10T09:56:57;15.50;99.90
40291;DHT22;26000;48.304;13.626;2023-05-10T09:59:25;15.50;99.90
40291;DHT22;26000;48.304;13.626;2023-05-10T10:01:52;15.50;99.90
40291;DHT22;26000;48.304;13.626;2023-05-10T10:04:19;15.50;99.90
40291;DHT22;26000;48.304;13.626;2023-05-10T10:06:46;15.50;99.90
40291;DHT22;26000;48.304;13.626;2023-05-10T10:09:12;15.50;99.90
40291;DHT22;26000;48.304;13.626;2023-05-10T10:11:39;15.50;99.90
40291;DHT22;26000;48.304;13.626;2023-05-10T10:14:06;15.50;99.90
40291;DHT22;26000;48.304;13.626;2023-05-10T10:16:32;15.60;99.90
40291;DHT22;26000;48.304;13.626;2023-05-10T10:18:58;15.50;99.90
40291;DHT22;26000;48.304;13.626;2023-05-10T10:21:24;15.50;99.90
40291;DHT22;26000;48.304;13.626;2023-05-10T10:23:51;15.60;99.90
40291;DHT22;26000;48.304;13.626;2023-05-10T10:26:17;15.50;99.90
40291;DHT22;26000;48.304;13.626;2023-05-10T10:29:09;15.50;99.90
40291;DHT22;26000;48.304;13.626;2023-05-10T10:31:57;15.50;99.90
40291;DHT22;26000;48.304;13.626;2023-05-10T10:34:29;15.50;99.90
40291;DHT22;26000;48.304;13.626;2023-05-10T10:36:57;15.60;99.90
40291;DHT22;26000;48.304;13.626;2023-05-10T10:39:23;15.60;99.90
40291;DHT22;26000;48.304;13.626;2023-05-10T10:41:54;15.60;99.90
40291;DHT22;26000;48.304;13.626;2023-05-10T10:47:04;15.60;99.90
40291;DHT22;26000;48.304;13.626;2023-05-10T10:52:24;15.60;99.90
40291;DHT22;26000;48.304;13.626;2023-05-10T11:02:53;15.70;99.90
40291;DHT22;26000;48.304;13.626;2023-05-10T11:05:48;15.60;99.90
40291;DHT22;26000;48.304;13.626;2023-05-10T11:09:00;15.60;99.90
40291;DHT22;26000;48.304;13.626;2023-05-10T11:11:07;15.60;99.90
40291;DHT22;26000;48.304;13.626;2023-05-10T11:13:41;15.70;99.90
40291;DHT22;26000;48.304;13.626;2023-05-10T11:16:23;15.70;99.90
40291;DHT22;26000;48.304;13.626;2023-05-10T11:21:18;15.80;99.90
40291;DHT22;26000;48.304;13.626;2023-05-10T11:26:17;16.00;99.90
40291;DHT22;26000;48.304;13.626;2023-05-10T11:28:46;16.10;99.90
40291;DHT22;26000;48.304;13.626;2023-05-10T11:31:17;16.10;99.90
40291;DHT22;26000;48.304;13.626;2023-05-10T11:33:47;16.20;99.90
40291;DHT22;26000;48.304;13.626;2023-05-10T11:36:15;16.30;99.90
40291;DHT22;26000;48.304;13.626;2023-05-10T11:38:41;16.20;99.90
40291;DHT22;26000;48.304;13.626;2023-05-10T11:41:11;16.10;99.90
40291;DHT22;26000;48.304;13.626;2023-05-10T11:43:39;16.20;99.90
40291;DHT22;26000;48.304;13.626;2023-05-10T11:46:12;16.20;99.90
40291;DHT22;26000;48.304;13.626;2023-05-10T11:48:42;16.20;99.90
40291;DHT22;26000;48.304;13.626;2023-05-10T11:51:09;16.40;99.90
40291;DHT22;26000;48.304;13.626;2023-05-10T11:53:35;16.50;99.90
40291;DHT22;26000;48.304;13.626;2023-05-10T11:56:08;16.60;99.90
40291;DHT22;26000;48.304;13.626;2023-05-10T11:58:35;16.70;99.90
40291;DHT22;26000;48.304;13.626;2023-05-10T12:01:02;16.90;99.90
40291;DHT22;26000;48.304;13.626;2023-05-10T12:03:28;16.90;99.90
40291;DHT22;26000;48.304;13.626;2023-05-10T12:05:55;17.00;99.90
40291;DHT22;26000;48.304;13.626;2023-05-10T12:08:23;17.10;99.90
40291;DHT22;26000;48.304;13.626;2023-05-10T12:10:50;17.10;99.90
40291;DHT22;26000;48.304;13.626;2023-05-10T12:13:17;17.00;99.90
40291;DHT22;26000;48.304;13.626;2023-05-10T12:15:43;17.10;99.90
40291;DHT22;26000;48.304;13.626;2023-05-10T12:18:10;17.20;99.90
40291;DHT22;26000;48.304;13.626;2023-05-10T12:20:36;17.20;99.90
40291;DHT22;26000;48.304;13.626;2023-05-10T12:23:03;17.20;99.90
40291;DHT22;26000;48.304;13.626;2023-05-10T12:25:33;17.30;99.90
40291;DHT22;26000;48.304;13.626;2023-05-10T12:28:02;17.30;99.90
40291;DHT22;26000;48.304;13.626;2023-05-10T12:30:30;17.20;99.90
40291;DHT22;26000;48.304;13.626;2023-05-10T12:33:07;17.20;99.90
40291;DHT22;26000;48.304;13.626;2023-05-10T12:35:38;17.10;99.90
40291;DHT22;26000;48.304;13.626;2023-05-10T12:41:06;17.10;99.90
40291;DHT22;26000;48.304;13.626;2023-05-10T12:43:33;17.20;99.90
40291;DHT22;26000;48.304;13.626;2023-05-10T12:46:04;17.30;99.90
40291;DHT22;26000;48.304;13.626;2023-05-10T12:48:30;17.30;99.90
40291;DHT22;26000;48.304;13.626;2023-05-10T12:50:56;17.40;99.90
40291;DHT22;26000;48.304;13.626;2023-05-10T12:53:22;17.30;99.90
40291;DHT22;26000;48.304;13.626;2023-05-10T12:55:48;17.20;99.90
40291;DHT22;26000;48.304;13.626;2023-05-10T12:58:14;17.10;99.90
40291;DHT22;26000;48.304;13.626;2023-05-10T13:00:39;17.20;99.90
40291;DHT22;26000;48.304;13.626;2023-05-10T13:03:05;17.20;99.90
40291;DHT22;26000;48.304;13.626;2023-05-10T13:05:34;17.30;99.90
40291;DHT22;26000;48.304;13.626;2023-05-10T13:08:00;17.40;99.90
40291;DHT22;26000;48.304;13.626;2023-05-10T13:10:25;17.40;99.90
40291;DHT22;26000;48.304;13.626;2023-05-10T13:12:51;17.40;99.90
40291;DHT22;26000;48.304;13.626;2023-05-10T13:15:17;17.50;99.90
40291;DHT22;26000;48.304;13.626;2023-05-10T13:17:43;17.50;99.90
40291;DHT22;26000;48.304;13.626;2023-05-10T13:20:09;17.50;99.90
40291;DHT22;26000;48.304;13.626;2023-05-10T13:22:35;17.40;99.90
40291;DHT22;26000;48.304;13.626;2023-05-10T13:25:01;17.50;99.90
40291;DHT22;26000;48.304;13.626;2023-05-10T13:27:27;17.60;99.90
40291;DHT22;26000;48.304;13.626;2023-05-10T13:29:53;17.60;99.90
40291;DHT22;26000;48.304;13.626;2023-05-10T13:32:18;17.70;99.90
40291;DHT22;26000;48.304;13.626;2023-05-10T13:34:44;17.70;99.90
40291;DHT22;26000;48.304;13.626;2023-05-10T13:37:10;17.90;99.90
40291;DHT22;26000;48.304;13.626;2023-05-10T13:39:35;17.80;99.90
40291;DHT22;26000;48.304;13.626;2023-05-10T13:42:03;17.80;99.90
40291;DHT22;26000;48.304;13.626;2023-05-10T13:44:29;17.90;99.90
40291;DHT22;26000;48.304;13.626;2023-05-10T13:46:56;17.90;99.90
40291;DHT22;26000;48.304;13.626;2023-05-10T13:49:21;17.90;99.90
40291;DHT22;26000;48.304;13.626;2023-05-10T13:51:47;17.90;99.90
40291;DHT22;26000;48.304;13.626;2023-05-10T13:54:13;17.80;99.90
40291;DHT22;26000;48.304;13.626;2023-05-10T13:56:39;17.80;99.90
40291;DHT22;26000;48.304;13.626;2023-05-10T13:59:06;17.70;99.90
40291;DHT22;26000;48.304;13.626;2023-05-10T14:01:33;17.80;99.90
40291;DHT22;26000;48.304;13.626;2023-05-10T14:03:59;17.90;99.90
40291;DHT22;26000;48.304;13.626;2023-05-10T14:06:24;17.90;99.90
40291;DHT22;26000;48.304;13.626;2023-05-10T14:08:50;18.00;99.90
40291;DHT22;26000;48.304;13.626;2023-05-10T14:11:16;18.00;99.90
40291;DHT22;26000;48.304;13.626;2023-05-10T14:13:41;17.80;99.90
40291;DHT22;26000;48.304;13.626;2023-05-10T14:16:07;17.90;99.90
40291;DHT22;26000;48.304;13.626;2023-05-10T14:18:32;18.00;99.90
40291;DHT22;26000;48.304;13.626;2023-05-10T14:20:58;18.00;99.90
40291;DHT22;26000;48.304;13.626;2023-05-10T14:23:24;18.10;99.90
40291;DHT22;26000;48.304;13.626;2023-05-10T14:25:52;18.10;99.90
40291;DHT22;26000;48.304;13.626;2023-05-10T14:28:18;18.10;99.90
40291;DHT22;26000;48.304;13.626;2023-05-10T14:30:45;18.10;99.90
40291;DHT22;26000;48.304;13.626;2023-05-10T14:33:11;18.00;99.90
40291;DHT22;26000;48.304;13.626;2023-05-10T14:35:37;18.00;99.90
40291;DHT22;26000;48.304;13.626;2023-05-10T14:38:03;18.00;99.90
40291;DHT22;26000;48.304;13.626;2023-05-10T14:40:29;17.90;99.90
40291;DHT22;26000;48.304;13.626;2023-05-10T14:42:55;18.00;99.90
40291;DHT22;26000;48.304;13.626;2023-05-10T14:45:22;18.00;99.90
40291;DHT22;26000;48.304;13.626;2023-05-10T14:47:48;18.00;99.90
40291;DHT22;26000;48.304;13.626;2023-05-10T14:50:14;18.00;99.90
40291;DHT22;26000;48.304;13.626;2023-05-10T14:52:40;18.10;99.90
40291;DHT22;26000;48.304;13.626;2023-05-10T14:55:06;18.00;99.90
40291;DHT22;26000;48.304;13.626;2023-05-10T14:57:32;18.00;99.90
40291;DHT22;26000;48.304;13.626;2023-05-10T14:59:58;18.00;99.90
40291;DHT22;26000;48.304;13.626;2023-05-10T15:02:24;17.90;99.90
40291;DHT22;26000;48.304;13.626;2023-05-10T15:04:49;17.90;99.90
40291;DHT22;26000;48.304;13.626;2023-05-10T15:07:16;17.80;99.90
40291;DHT22;26000;48.304;13.626;2023-05-10T15:09:46;17.70;99.90
40291;DHT22;26000;48.304;13.626;2023-05-10T15:12:12;17.70;99.90
40291;DHT22;26000;48.304;13.626;2023-05-10T15:14:37;17.70;99.90
40291;DHT22;26000;48.304;13.626;2023-05-10T15:17:05;17.70;99.90
40291;DHT22;26000;48.304;13.626;2023-05-10T15:19:31;17.60;99.90
40291;DHT22;26000;48.304;13.626;2023-05-10T15:21:58;17.60;99.90
40291;DHT22;26000;48.304;13.626;2023-05-10T15:24:24;17.50;99.90
40291;DHT22;26000;48.304;13.626;2023-05-10T15:26:50;17.50;99.90
40291;DHT22;26000;48.304;13.626;2023-05-10T15:29:15;17.40;99.90
40291;DHT22;26000;48.304;13.626;2023-05-10T15:31:49;17.50;99.90
40291;DHT22;26000;48.304;13.626;2023-05-10T15:34:16;17.40;99.90
40291;DHT22;26000;48.304;13.626;2023-05-10T15:36:42;17.30;99.90
40291;DHT22;26000;48.304;13.626;2023-05-10T15:39:08;17.30;99.90
40291;DHT22;26000;48.304;13.626;2023-05-10T15:41:35;17.20;99.90
40291;DHT22;26000;48.304;13.626;2023-05-10T15:44:01;17.20;99.90
40291;DHT22;26000;48.304;13.626;2023-05-10T15:46:27;17.20;99.90
40291;DHT22;26000;48.304;13.626;2023-05-10T15:48:53;17.10;99.90
40291;DHT22;26000;48.304;13.626;2023-05-10T15:51:19;17.10;99.90
40291;DHT22;26000;48.304;13.626;2023-05-10T15:53:45;17.10;99.90
40291;DHT22;26000;48.304;13.626;2023-05-10T15:56:11;17.00;99.90
40291;DHT22;26000;48.304;13.626;2023-05-10T15:58:40;17.00;99.90